Palmyra, Missouri
Current Conditions -  °F | °C
As of 12:15 PM on Sunday 25 Jan 2015 (Local Time) from KHAE Reporting Station
Light Snow Light Snow  
Wind Chill: 31°   Ceiling: 400
Heat Index: 37°   Visibility: 3mi
Dew Point: 36°   Wind: 9mph
Humidity: 93%   Direction: 10°N
Pressure: 29.67"   Gusts: NA
Location:  39.79°N, 91.52°W
Report Text: KHAE 251815Z AUTO 01008KT 3SM -SN OVC004 03/02 A2967 RMK AO2
Loading
Personal Weather Stations






























Interactive Weather Map New forecast layout! Learn more

10-Day Weather Forecast

Advertisements
Track Severe Weather on mobile